Time;durP1;ratioP1;P1;durP2;ratioP2;P2;SDS_P1;SDS_P2;PMS_P1;PMS_P2;Temp;Humidity;BMP_temperature;BMP_pressure;BME280_temperature;BME280_humidity;BME280_pressure;Samples;Min_cycle;Max_cycle;Signal;HPM_P1;HPM_P2
2023/07/06 00:00:51;;;;;;;7.55;3.15;;;12.60;99.90;;;;;;5084026;28;20043;-74
2023/07/06 00:03:16;;;;;;;7.28;3.58;;;12.40;99.90;;;;;;5072871;28;20032;-75
2023/07/06 00:05:44;;;;;;;8.45;3.50;;;12.40;99.90;;;;;;5089920;28;20036;-75
2023/07/06 00:08:14;;;;;;;8.15;3.63;;;12.40;99.90;;;;;;5090100;28;20411;-75
2023/07/06 00:10:42;;;;;;;6.60;3.83;;;12.40;99.90;;;;;;5088964;28;20032;-75
2023/07/06 00:13:09;;;;;;;6.55;3.65;;;12.40;99.90;;;;;;5072995;28;20468;-75
2023/07/06 00:15:35;;;;;;;7.28;4.13;;;12.40;99.90;;;;;;5081990;28;20115;-75
2023/07/06 00:18:04;;;;;;;9.95;4.10;;;12.40;99.90;;;;;;5089819;28;20044;-75
2023/07/06 00:20:37;;;;;;;7.88;3.92;;;12.40;99.90;;;;;;5089624;28;20047;-75
2023/07/06 00:23:03;;;;;;;7.28;4.18;;;12.30;99.90;;;;;;5089211;28;20047;-75
2023/07/06 00:25:29;;;;;;;6.80;4.18;;;12.30;99.90;;;;;;5072820;28;20036;-75
2023/07/06 00:27:55;;;;;;;5.40;3.63;;;12.30;99.90;;;;;;5089624;28;20054;-75
2023/07/06 00:30:40;;;;;;;6.72;4.45;;;12.30;99.90;;;;;;5089577;28;20064;-75
2023/07/06 00:33:11;;;;;;;9.70;4.15;;;12.30;99.90;;;;;;5076421;28;20522;-75
2023/07/06 00:35:39;;;;;;;6.25;4.03;;;12.30;99.90;;;;;;5089964;28;20404;-75
2023/07/06 00:38:09;;;;;;;8.05;4.43;;;12.30;99.90;;;;;;5089558;28;20036;-75
2023/07/06 00:40:38;;;;;;;5.30;3.75;;;12.30;99.90;;;;;;5089691;28;20036;-75
2023/07/06 00:43:06;;;;;;;7.43;4.20;;;12.30;99.90;;;;;;5089534;28;20072;-75
2023/07/06 00:45:33;;;;;;;9.63;4.85;;;12.30;99.90;;;;;;5086761;28;20036;-75
2023/07/06 00:47:59;;;;;;;7.22;4.18;;;12.30;99.90;;;;;;5085177;28;20380;-75
2023/07/06 00:50:29;;;;;;;6.03;4.10;;;12.20;99.90;;;;;;5089610;28;20043;-75
2023/07/06 00:53:00;;;;;;;7.03;4.72;;;12.20;99.90;;;;;;5089183;28;20040;-75
2023/07/06 00:55:30;;;;;;;5.47;4.50;;;12.20;99.90;;;;;;5089709;28;20036;-75
2023/07/06 00:58:03;;;;;;;6.68;4.53;;;12.10;99.90;;;;;;5089531;28;20525;-75
2023/07/06 01:00:29;;;;;;;10.00;5.75;;;12.10;99.90;;;;;;5089399;28;20088;-74
2023/07/06 01:03:00;;;;;;;6.97;4.80;;;12.10;99.90;;;;;;5088838;28;20118;-74
2023/07/06 01:05:28;;;;;;;8.32;5.50;;;12.10;99.90;;;;;;5072753;28;20050;-75
2023/07/06 01:07:58;;;;;;;8.25;5.43;;;12.10;99.90;;;;;;5089341;28;20047;-74
2023/07/06 01:10:24;;;;;;;6.57;4.78;;;12.10;99.90;;;;;;5089044;28;20051;-75
2023/07/06 01:12:50;;;;;;;8.60;5.10;;;12.10;99.90;;;;;;5089100;28;20070;-75
2023/07/06 01:15:16;;;;;;;8.98;5.13;;;12.10;99.90;;;;;;5089022;28;20440;-75
2023/07/06 01:17:53;;;;;;;9.25;5.40;;;12.00;99.90;;;;;;5089139;28;20040;-75
2023/07/06 01:20:50;;;;;;;10.55;5.28;;;12.00;99.90;;;;;;5072627;28;20036;-75
2023/07/06 01:23:44;;;;;;;7.80;4.68;;;12.00;99.90;;;;;;5062484;28;20080;-76
2023/07/06 01:26:27;;;;;;;7.80;5.40;;;12.00;99.90;;;;;;5072605;28;20430;-75
2023/07/06 01:29:34;;;;;;;8.07;5.57;;;12.00;99.90;;;;;;5086465;28;20047;-75
2023/07/06 01:32:03;;;;;;;13.18;5.95;;;12.00;99.90;;;;;;5067465;28;20056;-75
2023/07/06 01:34:42;;;;;;;10.20;5.97;;;12.00;99.90;;;;;;5088778;28;20070;-76
2023/07/06 01:37:18;;;;;;;11.05;5.80;;;12.00;99.90;;;;;;5092624;28;20048;-75
2023/07/06 01:39:43;;;;;;;10.80;6.00;;;12.00;99.90;;;;;;5091979;28;20040;-75
2023/07/06 01:42:12;;;;;;;12.07;6.20;;;12.00;99.90;;;;;;5084248;28;20067;-75
2023/07/06 01:44:42;;;;;;;8.73;6.25;;;12.00;99.90;;;;;;5092416;28;20036;-75
2023/07/06 01:47:09;;;;;;;11.50;6.53;;;12.00;99.90;;;;;;5092390;28;20081;-75
2023/07/06 01:49:35;;;;;;;12.77;6.38;;;12.10;99.90;;;;;;5066877;28;20507;-75
2023/07/06 01:52:24;;;;;;;11.80;6.40;;;12.10;99.90;;;;;;5092461;28;20133;-75
2023/07/06 01:55:13;;;;;;;8.50;6.10;;;12.10;99.90;;;;;;5086454;28;20071;-76
2023/07/06 01:57:55;;;;;;;10.38;6.03;;;12.20;99.90;;;;;;5075442;28;20044;-75
2023/07/06 02:00:24;;;;;;;9.65;6.75;;;12.20;99.90;;;;;;5092568;28;20203;-75
2023/07/06 02:02:52;;;;;;;10.52;6.45;;;12.20;99.90;;;;;;5092265;28;20087;-76
2023/07/06 02:05:19;;;;;;;10.88;6.93;;;12.20;99.90;;;;;;5092092;28;20036;-75
2023/07/06 02:07:45;;;;;;;9.88;7.05;;;12.30;99.90;;;;;;5092163;28;20576;-75
2023/07/06 02:10:15;;;;;;;12.13;7.07;;;12.30;99.90;;;;;;5091739;28;20575;-75
2023/07/06 02:12:43;;;;;;;11.25;6.95;;;12.30;99.90;;;;;;5091511;28;20071;-76
2023/07/06 02:15:10;;;;;;;11.00;6.95;;;12.40;99.90;;;;;;5092138;28;20044;-76
2023/07/06 02:17:36;;;;;;;9.98;6.38;;;12.40;99.90;;;;;;5091792;28;20039;-76
2023/07/06 02:20:01;;;;;;;12.55;7.78;;;12.40;99.90;;;;;;5091776;28;20036;-76
2023/07/06 02:22:28;;;;;;;11.57;7.28;;;12.40;99.90;;;;;;5081906;28;20045;-76
2023/07/06 02:24:53;;;;;;;13.45;6.78;;;12.40;99.90;;;;;;5091831;28;20072;-75
2023/07/06 02:27:19;;;;;;;15.68;7.45;;;12.40;99.90;;;;;;5091601;28;20550;-75
2023/07/06 02:29:45;;;;;;;10.40;7.45;;;12.40;99.90;;;;;;5091974;28;20144;-75
2023/07/06 02:32:11;;;;;;;10.35;7.35;;;12.40;99.90;;;;;;5081382;28;20048;-76
2023/07/06 02:34:37;;;;;;;10.75;7.60;;;12.40;99.90;;;;;;5080233;28;20039;-75
2023/07/06 02:37:03;;;;;;;11.40;7.32;;;12.40;99.90;;;;;;5091504;28;20048;-75
2023/07/06 02:39:29;;;;;;;11.75;7.10;;;12.40;99.90;;;;;;5091352;28;20028;-75
2023/07/06 02:41:56;;;;;;;16.30;8.07;;;12.40;99.90;;;;;;5091453;28;20044;-75
2023/07/06 02:44:23;;;;;;;11.85;7.05;;;12.40;99.90;;;;;;5091035;28;20115;-76
2023/07/06 02:46:49;;;;;;;8.73;6.88;;;12.30;99.90;;;;;;5091379;28;20048;-75
2023/07/06 02:49:16;;;;;;;14.13;7.80;;;12.40;99.90;;;;;;5091590;28;20101;-75
2023/07/06 02:51:42;;;;;;;11.45;7.85;;;12.30;99.90;;;;;;5091201;28;20130;-75
2023/07/06 02:54:10;;;;;;;9.85;6.95;;;12.30;99.90;;;;;;5090886;28;20499;-75
2023/07/06 02:56:35;;;;;;;9.23;6.97;;;12.30;99.90;;;;;;5066563;28;20039;-75
2023/07/06 02:59:01;;;;;;;12.68;6.88;;;12.20;99.90;;;;;;5091109;28;20040;-75
2023/07/06 03:01:26;;;;;;;11.40;6.75;;;12.20;99.90;;;;;;5090956;28;20414;-75
2023/07/06 03:03:52;;;;;;;9.70;6.90;;;12.20;99.90;;;;;;5090926;28;20044;-75
2023/07/06 03:06:18;;;;;;;14.68;7.00;;;12.10;99.90;;;;;;5090873;28;20047;-75
2023/07/06 03:08:44;;;;;;;12.35;6.85;;;12.10;99.90;;;;;;5090914;28;20038;-75
2023/07/06 03:11:10;;;;;;;8.77;6.13;;;12.10;99.90;;;;;;5090703;28;20111;-75
2023/07/06 03:13:36;;;;;;;11.32;7.20;;;12.10;99.90;;;;;;5090592;28;20526;-75
2023/07/06 03:16:04;;;;;;;12.80;6.60;;;12.10;99.90;;;;;;5090767;28;20036;-75
2023/07/06 03:18:30;;;;;;;10.50;6.93;;;12.10;99.90;;;;;;5090933;28;20106;-75
2023/07/06 03:20:56;;;;;;;10.63;6.57;;;12.00;99.90;;;;;;5091091;28;20131;-75
2023/07/06 03:23:23;;;;;;;9.57;6.32;;;12.00;99.90;;;;;;5090274;28;20044;-75
2023/07/06 03:25:50;;;;;;;15.02;6.80;;;12.00;99.90;;;;;;5090796;28;20032;-75
2023/07/06 03:28:16;;;;;;;8.73;6.47;;;12.00;99.90;;;;;;5090650;28;20090;-75
2023/07/06 03:30:43;;;;;;;9.10;6.30;;;12.00;99.90;;;;;;5090502;28;20065;-75
2023/07/06 03:33:09;;;;;;;8.27;6.28;;;12.00;99.90;;;;;;5084409;28;20036;-76
2023/07/06 03:35:34;;;;;;;8.90;6.50;;;12.00;99.90;;;;;;5061790;28;20028;-76
2023/07/06 03:38:00;;;;;;;9.45;5.90;;;12.00;99.90;;;;;;5090515;28;20081;-75
2023/07/06 03:40:27;;;;;;;10.73;6.88;;;12.00;99.90;;;;;;5073520;28;20040;-75
2023/07/06 03:42:56;;;;;;;15.68;6.22;;;12.00;99.90;;;;;;5090042;28;20040;-75
2023/07/06 03:45:22;;;;;;;10.70;6.40;;;12.10;99.90;;;;;;5090223;28;20040;-75
2023/07/06 03:47:50;;;;;;;8.40;5.75;;;12.10;99.90;;;;;;5065210;28;20040;-75
2023/07/06 03:50:17;;;;;;;8.40;6.65;;;12.10;99.90;;;;;;5069247;28;20028;-75
2023/07/06 03:52:44;;;;;;;10.38;6.38;;;12.20;99.90;;;;;;5089758;28;20040;-75
2023/07/06 03:55:24;;;;;;;8.02;6.55;;;12.20;99.90;;;;;;5090387;28;20071;-75
2023/07/06 03:57:50;;;;;;;7.50;6.00;;;12.20;99.90;;;;;;5083766;28;20040;-75
2023/07/06 04:00:21;;;;;;;12.35;5.85;;;12.20;99.90;;;;;;5089962;28;20039;-75
2023/07/06 04:02:53;;;;;;;9.40;6.43;;;12.30;99.90;;;;;;5090011;28;20040;-75
2023/07/06 04:05:31;;;;;;;10.13;5.80;;;12.40;99.90;;;;;;5090236;28;20048;-75
2023/07/06 04:07:57;;;;;;;8.77;6.07;;;12.50;99.90;;;;;;5089884;28;20086;-75
2023/07/06 04:10:23;;;;;;;9.18;5.90;;;12.50;99.90;;;;;;5081740;28;20044;-75
2023/07/06 04:12:49;;;;;;;9.30;5.40;;;12.60;99.90;;;;;;5089624;28;20063;-75
2023/07/06 04:15:21;;;;;;;11.23;5.80;;;12.60;99.90;;;;;;5073131;28;20404;-75
2023/07/06 04:17:52;;;;;;;10.65;5.88;;;12.70;99.90;;;;;;5089847;28;20044;-75
2023/07/06 04:20:23;;;;;;;8.65;5.93;;;12.70;99.90;;;;;;5072878;28;20047;-75
2023/07/06 04:22:51;;;;;;;9.15;5.78;;;12.80;99.90;;;;;;5089493;28;20040;-75
2023/07/06 04:25:19;;;;;;;9.35;5.80;;;12.80;99.90;;;;;;5089678;28;20044;-75
2023/07/06 04:27:46;;;;;;;10.65;5.80;;;12.90;99.90;;;;;;5086411;28;20403;-75
2023/07/06 04:30:12;;;;;;;12.10;6.28;;;12.80;99.90;;;;;;5089611;28;20043;-75
2023/07/06 04:32:38;;;;;;;10.85;6.15;;;12.90;99.90;;;;;;5089491;28;20062;-76
2023/07/06 04:35:06;;;;;;;11.60;5.78;;;12.90;99.90;;;;;;5089632;28;20562;-76
2023/07/06 04:37:32;;;;;;;8.52;6.38;;;12.90;99.90;;;;;;5086284;28;20111;-75
2023/07/06 04:39:59;;;;;;;13.20;6.88;;;12.90;99.90;;;;;;5084884;28;20506;-75
2023/07/06 04:42:27;;;;;;;10.27;6.75;;;12.90;99.90;;;;;;5072487;28;20040;-76
2023/07/06 04:44:54;;;;;;;12.57;6.35;;;12.90;99.90;;;;;;5089557;28;20092;-76
2023/07/06 04:47:23;;;;;;;10.85;6.93;;;13.00;99.90;;;;;;5089723;28;20560;-76
2023/07/06 04:49:49;;;;;;;10.75;6.70;;;12.90;99.90;;;;;;5089743;28;20044;-76
2023/07/06 04:52:15;;;;;;;9.98;6.13;;;12.90;99.90;;;;;;5089239;28;20040;-76
2023/07/06 04:54:41;;;;;;;9.40;6.70;;;12.90;99.90;;;;;;5089219;28;20556;-75
2023/07/06 04:57:07;;;;;;;12.45;7.72;;;13.00;99.90;;;;;;5089841;28;20040;-75
2023/07/06 04:59:33;;;;;;;13.77;7.20;;;13.10;99.90;;;;;;5089367;28;20067;-75
2023/07/06 05:01:59;;;;;;;11.48;6.68;;;13.10;99.90;;;;;;5089509;28;20071;-75
2023/07/06 05:04:25;;;;;;;17.50;7.97;;;13.10;99.90;;;;;;5089025;28;20076;-75
2023/07/06 05:06:50;;;;;;;14.98;7.60;;;13.20;99.90;;;;;;5089393;28;20074;-75
2023/07/06 05:09:16;;;;;;;12.27;7.38;;;13.20;99.90;;;;;;5072539;28;20396;-75
2023/07/06 05:11:41;;;;;;;12.40;7.35;;;13.20;99.90;;;;;;5092868;28;20036;-75
2023/07/06 05:14:07;;;;;;;11.23;6.88;;;13.20;99.90;;;;;;5093084;28;20184;-75
2023/07/06 05:16:32;;;;;;;13.18;7.63;;;13.20;99.90;;;;;;5093180;28;20482;-75
2023/07/06 05:18:58;;;;;;;15.70;7.32;;;13.20;99.90;;;;;;5093023;28;20350;-75
2023/07/06 05:21:24;;;;;;;13.82;7.80;;;13.30;99.90;;;;;;5092937;28;20170;-75
2023/07/06 05:23:50;;;;;;;13.60;7.45;;;13.20;99.90;;;;;;5092697;28;20048;-75
2023/07/06 05:26:17;;;;;;;12.73;7.55;;;13.30;99.90;;;;;;5092829;28;20044;-75
2023/07/06 05:28:43;;;;;;;16.02;7.47;;;13.30;99.90;;;;;;5092459;28;20172;-75
2023/07/06 05:31:08;;;;;;;13.52;6.80;;;13.30;99.90;;;;;;5089520;28;20048;-75
2023/07/06 05:33:34;;;;;;;11.15;6.95;;;13.50;99.90;;;;;;5089214;28;20551;-75
2023/07/06 05:35:59;;;;;;;14.60;7.70;;;13.60;99.90;;;;;;5086662;28;20036;-75
2023/07/06 05:38:25;;;;;;;17.92;8.20;;;13.80;99.90;;;;;;5092615;28;20046;-75
2023/07/06 05:40:51;;;;;;;12.45;8.50;;;14.00;99.90;;;;;;5092996;28;20075;-75
2023/07/06 05:43:19;;;;;;;16.80;7.72;;;14.10;99.90;;;;;;5092558;28;20043;-75
2023/07/06 05:45:46;;;;;;;12.23;6.97;;;14.20;99.90;;;;;;5092555;28;20062;-75
2023/07/06 05:48:12;;;;;;;12.95;7.68;;;14.40;99.90;;;;;;5092901;28;20052;-75
2023/07/06 05:50:38;;;;;;;18.67;8.38;;;14.50;99.90;;;;;;5086244;28;20039;-75
2023/07/06 05:53:06;;;;;;;11.15;6.85;;;14.60;99.90;;;;;;5075331;28;20040;-75
2023/07/06 05:55:31;;;;;;;15.75;8.00;;;14.70;99.90;;;;;;5080851;28;20534;-75
2023/07/06 05:57:57;;;;;;;16.08;7.75;;;14.80;99.90;;;;;;5083119;28;20039;-75
2023/07/06 06:00:23;;;;;;;12.30;7.50;;;15.00;99.90;;;;;;5092484;28;20123;-75
2023/07/06 06:02:48;;;;;;;16.92;7.53;;;15.00;99.90;;;;;;5093547;28;20039;-75
2023/07/06 06:05:15;;;;;;;16.25;7.95;;;15.10;99.90;;;;;;5092335;28;20035;-75
2023/07/06 06:07:44;;;;;;;14.60;7.82;;;15.20;99.90;;;;;;5092108;28;20289;-75
2023/07/06 06:10:11;;;;;;;14.68;8.05;;;15.30;99.90;;;;;;5075252;28;20185;-75
2023/07/06 06:12:37;;;;;;;15.02;7.05;;;15.30;99.90;;;;;;5074000;28;20047;-75
2023/07/06 06:15:03;;;;;;;16.15;7.57;;;15.50;99.90;;;;;;5085384;28;20035;-75
2023/07/06 06:17:28;;;;;;;14.90;7.50;;;15.60;99.90;;;;;;5092072;28;20039;-75
2023/07/06 06:19:54;;;;;;;13.90;7.25;;;15.70;99.90;;;;;;5091931;28;20491;-75
2023/07/06 06:22:20;;;;;;;17.38;6.95;;;15.80;99.90;;;;;;5091084;28;20040;-75
2023/07/06 06:24:46;;;;;;;17.58;8.02;;;15.90;99.90;;;;;;5091297;28;20507;-75
2023/07/06 06:27:14;;;;;;;15.57;7.38;;;16.00;99.90;;;;;;5080656;28;20522;-75
2023/07/06 06:29:42;;;;;;;16.10;7.00;;;16.10;99.90;;;;;;5083317;28;20542;-75
2023/07/06 06:32:08;;;;;;;18.80;8.10;;;16.20;99.90;;;;;;5083806;28;20040;-75
2023/07/06 06:34:34;;;;;;;14.25;7.40;;;16.30;99.90;;;;;;5081520;28;20032;-75
2023/07/06 06:37:00;;;;;;;15.02;7.20;;;16.40;99.90;;;;;;5089025;28;20087;-75
2023/07/06 06:39:26;;;;;;;12.98;7.20;;;16.50;99.90;;;;;;5073257;28;20296;-75
2023/07/06 06:41:52;;;;;;;16.70;7.63;;;16.60;99.90;;;;;;5089973;28;20507;-75
2023/07/06 06:44:17;;;;;;;14.57;7.15;;;16.70;99.90;;;;;;5089912;28;20098;-75
2023/07/06 06:46:45;;;;;;;14.38;7.63;;;16.80;99.90;;;;;;5089189;28;20085;-75
2023/07/06 06:49:12;;;;;;;15.23;7.72;;;16.90;99.90;;;;;;5079321;28;20562;-75
2023/07/06 06:51:37;;;;;;;14.13;7.00;;;17.00;99.90;;;;;;5054437;28;20120;-75
2023/07/06 06:54:03;;;;;;;11.63;7.15;;;17.10;99.90;;;;;;5083283;28;20124;-75
2023/07/06 06:56:29;;;;;;;17.80;7.22;;;17.10;99.90;;;;;;5087540;28;20123;-75
2023/07/06 06:58:54;;;;;;;13.20;7.80;;;17.20;99.90;;;;;;5090480;28;20467;-75
2023/07/06 07:01:20;;;;;;;12.57;7.55;;;17.30;99.90;;;;;;5083834;28;20072;-75
2023/07/06 07:03:46;;;;;;;14.48;7.28;;;17.30;99.90;;;;;;5090276;28;20035;-75
2023/07/06 07:06:13;;;;;;;15.70;6.93;;;17.40;99.90;;;;;;5090344;28;20047;-75
2023/07/06 07:08:41;;;;;;;19.05;7.38;;;17.50;99.90;;;;;;5090290;28;20539;-75
2023/07/06 07:11:07;;;;;;;16.80;7.20;;;17.60;99.90;;;;;;5090529;28;20051;-75
2023/07/06 07:13:35;;;;;;;14.20;6.70;;;17.60;99.90;;;;;;5090433;28;20032;-75
2023/07/06 07:16:02;;;;;;;13.55;7.25;;;17.70;99.90;;;;;;5090846;28;20044;-75
2023/07/06 07:18:27;;;;;;;11.60;6.75;;;17.70;99.90;;;;;;5086586;28;20040;-75
2023/07/06 07:20:53;;;;;;;19.00;7.15;;;17.80;99.90;;;;;;5084117;28;20036;-75
2023/07/06 07:23:26;;;;;;;14.15;6.68;;;17.90;99.90;;;;;;5088541;28;20055;-75
2023/07/06 07:25:52;;;;;;;12.35;6.35;;;18.10;99.90;;;;;;5077869;28;20127;-75
2023/07/06 07:28:18;;;;;;;13.27;5.47;;;18.10;99.90;;;;;;5086887;28;20566;-75
2023/07/06 07:30:57;;;;;;;11.35;5.10;;;18.20;99.90;;;;;;5073652;28;20036;-75
2023/07/06 07:33:23;;;;;;;14.00;5.22;;;18.40;99.90;;;;;;5079475;28;20040;-76
2023/07/06 07:35:51;;;;;;;10.13;4.30;;;18.40;99.90;;;;;;5089286;28;20564;-76
2023/07/06 07:38:17;;;;;;;10.90;4.10;;;18.50;99.90;;;;;;5086270;28;20032;-76
2023/07/06 07:40:56;;;;;;;9.13;4.07;;;18.60;99.90;;;;;;5078339;28;20055;-76
2023/07/06 07:43:27;;;;;;;10.45;3.50;;;18.80;99.90;;;;;;5079818;28;20063;-76
2023/07/06 07:46:00;;;;;;;5.32;3.08;;;18.90;99.90;;;;;;5094270;28;20131;-76
2023/07/06 07:48:27;;;;;;;8.40;2.72;;;19.00;99.90;;;;;;5079102;28;20035;-76
2023/07/06 07:50:56;;;;;;;6.18;2.80;;;19.20;99.90;;;;;;5082569;28;20035;-74
2023/07/06 07:53:24;;;;;;;5.63;2.90;;;19.30;99.90;;;;;;5082215;28;20036;-76
2023/07/06 07:55:50;;;;;;;9.55;3.55;;;19.50;99.90;;;;;;5075650;28;20614;-75
2023/07/06 07:58:16;;;;;;;7.15;2.95;;;19.60;99.90;;;;;;5079996;28;20383;-76
2023/07/06 08:00:47;;;;;;;6.97;2.60;;;19.70;99.90;;;;;;5079717;28;20086;-77
2023/07/06 08:03:13;;;;;;;6.28;2.92;;;20.00;99.90;;;;;;5082759;28;20043;-77
2023/07/06 08:05:39;;;;;;;6.88;2.85;;;20.30;99.90;;;;;;5076821;28;20407;-76
2023/07/06 08:08:05;;;;;;;6.18;2.70;;;20.10;99.90;;;;;;5089926;28;20097;-76
2023/07/06 08:10:35;;;;;;;5.50;2.40;;;20.00;99.90;;;;;;5089635;28;20050;-76
2023/07/06 08:13:01;;;;;;;7.82;2.28;;;19.70;99.90;;;;;;5089710;28;20036;-76
2023/07/06 08:15:27;;;;;;;6.70;2.58;;;19.60;99.90;;;;;;5081825;28;20097;-76
2023/07/06 08:17:52;;;;;;;6.70;2.65;;;19.60;99.90;;;;;;5087922;28;20040;-76
2023/07/06 08:20:18;;;;;;;10.70;2.75;;;19.60;99.90;;;;;;5088896;28;20039;-76
2023/07/06 08:22:46;;;;;;;5.53;2.50;;;19.70;99.90;;;;;;5089704;28;20500;-78
2023/07/06 08:25:12;;;;;;;4.90;2.00;;;19.90;99.90;;;;;;5086739;28;20044;-76
2023/07/06 08:27:39;;;;;;;5.72;2.40;;;19.80;99.90;;;;;;5088397;28;20126;-77
2023/07/06 08:30:06;;;;;;;9.55;2.70;;;19.80;99.90;;;;;;5081042;28;20091;-77
2023/07/06 08:32:33;;;;;;;4.82;1.98;;;19.60;99.90;;;;;;5088856;28;20071;-77
2023/07/06 08:35:01;;;;;;;7.63;2.60;;;19.40;99.90;;;;;;5089952;28;20055;-77
2023/07/06 08:37:26;;;;;;;9.93;2.60;;;19.20;99.90;;;;;;5089548;28;20044;-77
2023/07/06 08:39:52;;;;;;;3.30;1.90;;;19.00;99.90;;;;;;5089667;28;20039;-77
2023/07/06 08:42:18;;;;;;;8.40;2.55;;;18.80;99.90;;;;;;5088582;28;20077;-78
2023/07/06 08:44:55;;;;;;;7.05;2.30;;;18.70;99.90;;;;;;5090903;28;20051;-77
2023/07/06 08:47:25;;;;;;;7.20;2.95;;;18.70;99.90;;;;;;5089530;28;20052;-77
2023/07/06 08:49:51;;;;;;;6.45;2.20;;;18.70;99.90;;;;;;5093597;28;20040;-77
2023/07/06 08:52:19;;;;;;;6.78;2.13;;;19.00;99.90;;;;;;5093245;28;20126;-77
2023/07/06 08:54:50;;;;;;;6.20;2.60;;;19.40;99.90;;;;;;5093310;28;20039;-77
2023/07/06 08:57:20;;;;;;;4.93;2.10;;;19.80;99.90;;;;;;5090233;28;20039;-77
2023/07/06 08:59:48;;;;;;;4.78;1.80;;;19.80;99.90;;;;;;5093145;28;20089;-77
2023/07/06 09:02:19;;;;;;;5.32;1.55;;;19.80;99.90;;;;;;5093790;28;20040;-77
2023/07/06 09:04:46;;;;;;;5.38;1.83;;;19.50;99.90;;;;;;5093449;28;20059;-76
2023/07/06 09:07:17;;;;;;;3.83;1.52;;;19.50;99.90;;;;;;5093086;28;20036;-76
2023/07/06 09:09:44;;;;;;;3.10;1.42;;;19.40;99.90;;;;;;5074620;28;20032;-77
2023/07/06 09:12:33;;;;;;;5.35;1.50;;;19.40;99.90;;;;;;5092973;28;20044;-77
2023/07/06 09:15:00;;;;;;;7.07;2.00;;;19.40;99.90;;;;;;5088360;28;20407;-77
2023/07/06 09:17:29;;;;;;;5.25;1.80;;;19.40;99.90;;;;;;5092964;28;20082;-76
2023/07/06 09:19:55;;;;;;;5.85;1.80;;;19.30;99.90;;;;;;5093164;28;20093;-77
2023/07/06 09:22:23;;;;;;;5.47;2.20;;;19.30;99.90;;;;;;5092549;28;20515;-77
2023/07/06 09:24:50;;;;;;;4.18;1.67;;;19.50;99.90;;;;;;5087492;28;20044;-77
2023/07/06 09:27:26;;;;;;;6.70;1.70;;;19.70;99.90;;;;;;5090213;28;20032;-77
2023/07/06 09:30:06;;;;;;;4.00;1.50;;;19.70;99.90;;;;;;5092647;28;20039;-77
2023/07/06 09:32:33;;;;;;;4.07;1.60;;;19.60;99.90;;;;;;5091486;28;20083;-77
2023/07/06 09:35:21;;;;;;;5.60;1.52;;;19.60;99.90;;;;;;5090778;28;20032;-77
2023/07/06 09:37:48;;;;;;;4.88;1.50;;;19.60;99.90;;;;;;5090703;28;20526;-76
2023/07/06 09:40:14;;;;;;;7.80;2.08;;;19.80;99.90;;;;;;5074776;28;20040;-78
2023/07/06 09:42:40;;;;;;;6.85;1.63;;;20.10;99.90;;;;;;5086250;28;20404;-77
2023/07/06 09:45:30;;;;;;;6.60;2.17;;;20.30;99.90;;;;;;5090399;28;20054;-77
2023/07/06 09:48:01;;;;;;;4.30;1.60;;;20.50;99.90;;;;;;5092120;28;20452;-77
2023/07/06 09:50:35;;;;;;;8.23;1.90;;;20.70;99.90;;;;;;5074678;28;20036;-77
2023/07/06 09:53:05;;;;;;;;;;;21.00;99.90;;;;;;5074965;28;20040;-77
2023/07/06 09:55:31;;;;;;;4.35;1.70;;;21.10;99.90;;;;;;5091266;28;19919;-76
2023/07/06 09:57:57;;;;;;;4.00;1.73;;;21.20;99.90;;;;;;5092047;28;20036;-76
2023/07/06 10:00:31;;;;;;;2.60;1.40;;;21.10;99.90;;;;;;5091903;28;20028;-76
2023/07/06 10:03:14;;;;;;;4.60;1.60;;;21.00;99.90;;;;;;5091827;28;20051;-77
2023/07/06 10:05:58;;;;;;;6.75;1.60;;;20.70;99.90;;;;;;5092218;28;20059;-76
2023/07/06 10:08:32;;;;;;;3.50;1.40;;;20.70;99.90;;;;;;5091995;28;20039;-76
2023/07/06 10:11:24;;;;;;;3.38;1.55;;;20.80;99.90;;;;;;5092086;28;20469;-76
2023/07/06 10:14:02;;;;;;;2.95;1.20;;;20.80;99.90;;;;;;5068745;28;20044;-76
2023/07/06 10:16:47;;;;;;;4.18;1.10;;;20.70;99.90;;;;;;5091807;28;20574;-76
2023/07/06 10:19:20;;;;;;;2.97;1.30;;;20.50;99.90;;;;;;5091756;28;20068;-76
2023/07/06 10:22:00;;;;;;;3.30;1.10;;;20.40;99.90;;;;;;5092193;28;20059;-76
2023/07/06 10:24:56;;;;;;;3.17;1.20;;;20.30;99.90;;;;;;5091503;28;20376;-76
2023/07/06 10:27:31;;;;;;;2.17;1.17;;;20.60;99.90;;;;;;5091718;28;20153;-77
2023/07/06 10:30:04;;;;;;;3.92;1.10;;;20.90;99.90;;;;;;5086474;28;20032;-76
2023/07/06 10:32:39;;;;;;;3.65;1.10;;;20.90;99.90;;;;;;5091316;28;20052;-76
2023/07/06 10:35:11;;;;;;;1.50;1.00;;;20.80;99.90;;;;;;5091533;28;20106;-77
2023/07/06 10:37:39;;;;;;;2.65;1.15;;;20.90;99.90;;;;;;5091590;28;20403;-77
2023/07/06 10:40:19;;;;;;;3.33;1.23;;;21.10;99.90;;;;;;5091337;28;20036;-77
2023/07/06 10:43:08;;;;;;;3.50;1.30;;;21.40;99.90;;;;;;5090992;28;20119;-76
2023/07/06 10:45:42;;;;;;;3.70;1.20;;;21.60;99.90;;;;;;5091487;28;20047;-77
2023/07/06 10:48:32;;;;;;;1.75;1.10;;;21.80;99.90;;;;;;5091241;28;20114;-77
2023/07/06 10:51:25;;;;;;;2.33;1.08;;;21.90;99.90;;;;;;5090881;28;20066;-77
2023/07/06 10:54:40;;;;;;;3.17;1.40;;;22.10;99.90;;;;;;5077293;28;20048;-79
2023/07/06 10:57:11;;;;;;;4.07;1.25;;;22.20;99.90;;;;;;5050975;28;20496;-77
2023/07/06 10:59:44;;;;;;;2.75;1.15;;;22.30;99.90;;;;;;5086480;28;20036;-77
2023/07/06 11:02:40;;;;;;;2.83;1.25;;;22.20;99.90;;;;;;5091412;28;20035;-77
2023/07/06 11:05:10;;;;;;;4.13;1.30;;;22.20;99.90;;;;;;5089816;28;20051;-77
2023/07/06 11:07:50;;;;;;;2.35;1.10;;;22.40;99.90;;;;;;5090929;28;20110;-76
2023/07/06 11:10:24;;;;;;;4.00;1.40;;;22.60;99.90;;;;;;5082857;28;20040;-78
2023/07/06 11:13:04;;;;;;;2.45;1.20;;;22.60;99.90;;;;;;5062318;28;20097;-76
2023/07/06 11:15:35;;;;;;;3.85;1.45;;;22.50;99.90;;;;;;5077367;28;20155;-77
2023/07/06 11:18:25;;;;;;;3.47;1.20;;;22.60;99.90;;;;;;5078417;28;20515;-77
2023/07/06 11:21:12;;;;;;;6.65;1.30;;;22.40;99.90;;;;;;5073264;28;20072;-77
2023/07/06 11:23:45;;;;;;;2.88;1.27;;;22.20;99.90;;;;;;5052186;28;20059;-76
2023/07/06 11:26:35;;;;;;;4.45;1.83;;;22.00;99.90;;;;;;5074071;28;20076;-77
2023/07/06 11:29:03;;;;;;;3.78;1.52;;;21.70;99.90;;;;;;5079847;28;20051;-77
2023/07/06 11:31:47;;;;;;;2.15;1.30;;;21.50;99.90;;;;;;5071801;28;20070;-76
2023/07/06 11:34:28;;;;;;;3.03;1.40;;;21.30;99.90;;;;;;5076796;28;20032;-76
2023/07/06 11:37:19;;;;;;;3.58;1.20;;;21.10;99.90;;;;;;5059440;28;20039;-76
2023/07/06 11:40:00;;;;;;;3.70;1.63;;;20.90;99.90;;;;;;5078625;28;20119;-77
2023/07/06 11:43:18;;;;;;;4.45;1.40;;;20.80;99.90;;;;;;5073876;28;20491;-76
2023/07/06 11:46:22;;;;;;;3.08;1.15;;;20.60;99.90;;;;;;5050257;28;20415;-77
2023/07/06 11:49:15;;;;;;;6.32;1.63;;;20.60;99.90;;;;;;5071836;28;20052;-76
2023/07/06 11:51:41;;;;;;;4.05;1.52;;;20.70;99.90;;;;;;5071174;28;20082;-77
2023/07/06 11:54:19;;;;;;;4.40;1.70;;;20.80;99.90;;;;;;5083201;28;20047;-76
2023/07/06 11:57:03;;;;;;;5.82;1.52;;;20.90;99.90;;;;;;5071803;28;20048;-76
2023/07/06 11:59:40;;;;;;;;;;;21.40;99.90;;;;;;5078551;28;20036;-77
2023/07/06 12:02:14;;;;;;;3.72;1.70;;;21.50;99.90;;;;;;5077178;28;19920;-76
2023/07/06 12:04:40;;;;;;;6.53;1.90;;;21.50;99.90;;;;;;5077213;28;20116;-76
2023/07/06 12:07:24;;;;;;;4.78;2.00;;;21.40;99.90;;;;;;5071695;28;20126;-77
2023/07/06 12:09:50;;;;;;;7.78;2.33;;;21.10;99.90;;;;;;5071573;28;20123;-77
2023/07/06 12:12:17;;;;;;;4.35;1.70;;;20.90;99.90;;;;;;5076852;28;20143;-76
2023/07/06 12:14:43;;;;;;;3.65;1.50;;;20.60;99.90;;;;;;5074604;28;20127;-76
2023/07/06 12:17:12;;;;;;;4.43;1.60;;;20.60;99.90;;;;;;5077686;28;20123;-76
2023/07/06 12:19:41;;;;;;;7.93;1.90;;;20.50;99.90;;;;;;5085988;28;20116;-76
2023/07/06 12:22:13;;;;;;;5.30;1.75;;;20.50;99.90;;;;;;5071264;28;20127;-76
2023/07/06 12:24:39;;;;;;;4.72;1.70;;;20.60;99.90;;;;;;5071208;28;20036;-75
2023/07/06 12:27:14;;;;;;;3.97;1.50;;;20.70;99.90;;;;;;5075824;28;20044;-76
2023/07/06 12:29:41;;;;;;;4.93;1.20;;;20.90;99.90;;;;;;5071077;28;20054;-77
2023/07/06 12:32:19;;;;;;;4.18;1.33;;;21.60;99.90;;;;;;5073896;28;20036;-76
2023/07/06 12:34:49;;;;;;;2.45;1.08;;;22.00;99.90;;;;;;5075793;28;20097;-76
2023/07/06 12:37:16;;;;;;;3.88;0.90;;;22.50;99.90;;;;;;5078821;28;20036;-76
2023/07/06 12:39:45;;;;;;;2.08;0.85;;;23.00;99.90;;;;;;5081293;28;20373;-76
2023/07/06 12:42:12;;;;;;;2.00;0.80;;;23.50;99.90;;;;;;5064973;28;20040;-76
2023/07/06 12:44:39;;;;;;;2.50;1.00;;;23.80;99.90;;;;;;5086962;28;20056;-76
2023/07/06 12:47:37;;;;;;;2.78;0.90;;;24.00;99.90;;;;;;5081884;28;20028;-76
2023/07/06 12:50:06;;;;;;;1.77;1.00;;;24.10;99.90;;;;;;5078528;28;20086;-76
2023/07/06 12:52:33;;;;;;;1.30;0.80;;;24.00;99.90;;;;;;5102927;28;20032;-76
2023/07/06 12:55:00;;;;;;;2.83;0.80;;;24.10;99.90;;;;;;5086994;28;20046;-76
2023/07/06 12:57:31;;;;;;;12.52;1.40;;;24.50;99.90;;;;;;5084805;28;20050;-76
2023/07/06 13:00:06;;;;;;;3.20;1.20;;;24.80;99.90;;;;;;5087331;28;20036;-77